createdAt,value
2018-08-27T00:00:06.123Z,0
2018-08-27T00:01:05.819Z,0
2018-08-27T00:02:05.825Z,0
2018-08-27T00:03:05.769Z,0
2018-08-27T00:04:05.856Z,0
2018-08-27T00:05:05.841Z,0
2018-08-27T00:06:06.205Z,0
2018-08-27T00:07:05.797Z,0
2018-08-27T00:08:05.792Z,0
2018-08-27T00:09:05.833Z,0
2018-08-27T00:10:05.846Z,0
2018-08-27T00:11:05.815Z,0
2018-08-27T00:12:08.195Z,0
2018-08-27T00:13:05.829Z,0
2018-08-27T00:14:05.805Z,0
2018-08-27T00:15:05.774Z,0
2018-08-27T00:16:05.811Z,0
2018-08-27T00:17:05.787Z,0
2018-08-27T00:18:06.150Z,0
2018-08-27T00:19:05.800Z,0
2018-08-27T00:20:05.851Z,0
2018-08-27T00:21:05.808Z,0
2018-08-27T00:26:23.433Z,0
2018-08-27T00:26:35.711Z,0
2018-08-27T00:27:35.753Z,0
2018-08-27T00:28:35.722Z,0
2018-08-27T00:29:35.703Z,0
2018-08-27T00:30:35.637Z,0
2018-08-27T00:31:36.059Z,0
2018-08-27T00:32:35.652Z,0
2018-08-27T00:33:35.667Z,0
2018-08-27T00:34:35.661Z,0
2018-08-27T00:35:35.678Z,0
2018-08-27T00:36:35.719Z,0
2018-08-27T00:37:36.008Z,0
2018-08-27T00:38:35.694Z,0
2018-08-27T00:39:35.694Z,0
2018-08-27T00:40:35.666Z,0
2018-08-27T00:41:35.681Z,0
2018-08-27T00:42:35.713Z,0
2018-08-27T00:43:36.141Z,0
2018-08-27T00:44:35.665Z,0
2018-08-27T00:45:35.712Z,0
2018-08-27T00:46:35.740Z,0
2018-08-27T00:47:35.746Z,0
2018-08-27T00:48:35.696Z,0
2018-08-27T00:49:36.064Z,0
2018-08-27T00:50:35.746Z,0
2018-08-27T00:55:52.863Z,0
2018-08-27T00:56:05.497Z,0
2018-08-27T00:57:05.566Z,0
2018-08-27T00:58:05.508Z,0
2018-08-27T00:59:05.449Z,0
2018-08-27T01:00:05.523Z,0
2018-08-27T01:01:05.805Z,0
2018-08-27T01:02:05.507Z,0
2018-08-27T01:03:05.510Z,0
2018-08-27T01:04:05.514Z,0
2018-08-27T01:05:05.504Z,0
2018-08-27T01:06:05.487Z,0
2018-08-27T01:07:05.800Z,0
2018-08-27T01:08:05.520Z,0
2018-08-27T01:09:05.539Z,0
2018-08-27T01:10:05.619Z,0
2018-08-27T01:11:05.526Z,0
2018-08-27T01:12:05.495Z,0
2018-08-27T01:13:06.839Z,0
2018-08-27T01:14:05.519Z,0
2018-08-27T01:15:05.548Z,0
2018-08-27T01:16:05.552Z,0
2018-08-27T01:17:05.531Z,0
2018-08-27T01:18:05.547Z,0
2018-08-27T01:19:06.875Z,0
2018-08-27T01:20:05.595Z,0
2018-08-27T01:21:05.525Z,0
2018-08-27T01:22:05.565Z,0
2018-08-27T01:23:05.479Z,0
2018-08-27T01:24:05.596Z,0
2018-08-27T01:25:06.072Z,0
2018-08-27T01:26:05.524Z,0
2018-08-27T01:27:05.599Z,0
2018-08-27T01:28:05.553Z,0
2018-08-27T01:29:05.515Z,0
2018-08-27T01:30:05.617Z,0
2018-08-27T01:31:05.863Z,0
2018-08-27T01:32:21.289Z,0
2018-08-27T01:33:08.075Z,0
2018-08-27T01:34:09.738Z,0
2018-08-27T01:35:06.455Z,0
2018-08-27T01:36:05.566Z,0
2018-08-27T01:37:06.921Z,0
2018-08-27T01:38:05.599Z,0
2018-08-27T01:39:05.610Z,0
2018-08-27T01:40:05.561Z,0
2018-08-27T01:41:05.512Z,0
2018-08-27T01:46:22.148Z,0
2018-08-27T01:46:34.442Z,0
2018-08-27T01:47:34.393Z,0
2018-08-27T01:48:34.422Z,0
2018-08-27T01:49:34.445Z,0
2018-08-27T01:50:34.386Z,0
2018-08-27T01:51:34.834Z,0
2018-08-27T01:52:34.395Z,0
2018-08-27T01:53:34.499Z,0
2018-08-27T01:54:34.412Z,0
2018-08-27T01:55:34.364Z,0
2018-08-27T01:56:34.425Z,0
2018-08-27T01:57:34.779Z,0
2018-08-27T01:58:34.474Z,0
2018-08-27T01:59:34.410Z,0
2018-08-27T02:00:34.408Z,0
2018-08-27T02:01:34.416Z,0
2018-08-27T02:02:34.423Z,0
2018-08-27T02:03:34.807Z,0
2018-08-27T02:04:34.415Z,0
2018-08-27T02:05:34.418Z,0
2018-08-27T02:06:34.431Z,0
2018-08-27T02:07:34.431Z,0
2018-08-27T02:08:34.438Z,0
2018-08-27T02:09:34.857Z,0
2018-08-27T02:10:34.404Z,0
2018-08-27T02:11:34.400Z,0
2018-08-27T02:12:34.454Z,0
2018-08-27T02:13:34.476Z,0
2018-08-27T02:14:34.449Z,0
2018-08-27T02:15:34.747Z,0
2018-08-27T02:16:34.520Z,0
2018-08-27T02:17:34.456Z,0
2018-08-27T02:18:34.513Z,0
2018-08-27T02:19:34.414Z,0
2018-08-27T02:20:34.439Z,0
2018-08-27T02:21:40.046Z,0
2018-08-27T02:22:34.518Z,0
2018-08-27T02:23:34.432Z,0
2018-08-27T02:24:34.439Z,0
2018-08-27T02:25:34.442Z,0
2018-08-27T02:26:34.452Z,0
2018-08-27T02:29:14.229Z,0
2018-08-27T02:29:34.534Z,0
2018-08-27T02:30:34.523Z,0
2018-08-27T02:31:34.553Z,0
2018-08-27T02:32:34.489Z,0
2018-08-27T02:33:34.574Z,0
2018-08-27T02:34:34.808Z,0
2018-08-27T02:35:34.504Z,0
2018-08-27T02:36:34.514Z,0
2018-08-27T02:37:34.452Z,0
2018-08-27T02:38:34.456Z,0
2018-08-27T02:39:34.505Z,0
2018-08-27T02:40:34.853Z,0
2018-08-27T02:41:34.509Z,0
2018-08-27T02:42:34.494Z,0
2018-08-27T02:43:34.485Z,0
2018-08-27T02:44:34.503Z,0
2018-08-27T02:45:34.518Z,0
2018-08-27T02:46:34.850Z,0
2018-08-27T02:47:34.529Z,0
2018-08-27T02:48:34.532Z,0
2018-08-27T02:49:34.507Z,0
2018-08-27T02:50:34.485Z,0
2018-08-27T02:51:34.506Z,0
2018-08-27T02:52:34.953Z,0
2018-08-27T02:53:34.520Z,0
2018-08-27T02:54:34.540Z,0
2018-08-27T02:55:34.484Z,0
2018-08-27T02:56:34.539Z,0
2018-08-27T02:57:34.528Z,0
2018-08-27T02:58:35.919Z,0
2018-08-27T02:59:34.572Z,0
2018-08-27T03:00:34.527Z,0
2018-08-27T03:01:34.524Z,0
2018-08-27T03:02:34.541Z,0
2018-08-27T03:03:34.491Z,0
2018-08-27T03:04:34.906Z,0
2018-08-27T03:05:34.572Z,0
2018-08-27T03:06:34.610Z,0
2018-08-27T03:07:34.438Z,0
2018-08-27T03:08:34.547Z,0
2018-08-27T03:09:34.062Z,0
2018-08-27T03:10:34.763Z,0
2018-08-27T03:11:34.553Z,0
2018-08-27T03:12:34.812Z,0
2018-08-27T03:13:34.566Z,0
2018-08-27T03:14:34.563Z,0
2018-08-27T03:15:34.562Z,0
2018-08-27T03:16:34.920Z,0
2018-08-27T03:17:34.472Z,0
2018-08-27T03:18:34.720Z,0
2018-08-27T03:19:34.543Z,0
2018-08-27T03:20:34.569Z,0
2018-08-27T03:21:34.586Z,0
2018-08-27T03:22:34.891Z,0
2018-08-27T03:23:34.546Z,0
2018-08-27T03:24:34.483Z,0
2018-08-27T03:25:34.903Z,0
2018-08-27T03:26:34.561Z,0
2018-08-27T03:27:34.602Z,0
2018-08-27T03:28:34.581Z,0
2018-08-27T03:38:13.420Z,0
2018-08-27T03:38:25.714Z,0
2018-08-27T03:39:25.819Z,0
2018-08-27T03:40:25.606Z,0
2018-08-27T03:41:25.703Z,0
2018-08-27T03:42:25.927Z,0
2018-08-27T03:43:27.520Z,0
2018-08-27T03:44:25.681Z,0
2018-08-27T03:45:25.746Z,0
2018-08-27T03:46:25.717Z,0
2018-08-27T03:47:25.757Z,0
2018-08-27T03:48:26.877Z,0
2018-08-27T03:49:25.712Z,0
2018-08-27T03:50:25.718Z,0
2018-08-27T03:51:25.714Z,0
2018-08-27T03:52:25.727Z,0
2018-08-27T03:53:25.721Z,0
2018-08-27T03:54:26.127Z,0
2018-08-27T03:55:25.739Z,0
2018-08-27T03:56:25.752Z,0
2018-08-27T03:57:25.657Z,0
2018-08-27T03:58:25.730Z,0
2018-08-27T03:59:25.692Z,0
2018-08-27T04:00:26.164Z,0
2018-08-27T04:01:25.690Z,0
2018-08-27T04:02:25.731Z,0
2018-08-27T04:03:25.705Z,0
2018-08-27T04:04:25.740Z,0
2018-08-27T04:05:25.885Z,0
2018-08-27T04:06:26.088Z,0
2018-08-27T04:07:25.680Z,4
2018-08-27T04:08:26.345Z,4
2018-08-27T04:09:25.746Z,0
2018-08-27T04:10:25.709Z,0
2018-08-27T04:11:25.709Z,4
2018-08-27T04:12:30.036Z,4
2018-08-27T04:13:25.722Z,0
2018-08-27T04:14:25.732Z,4
2018-08-27T04:15:25.736Z,4
2018-08-27T04:16:25.763Z,0
2018-08-27T04:17:25.756Z,4
2018-08-27T04:18:26.173Z,4
2018-08-27T04:19:25.759Z,8
2018-08-27T04:20:25.699Z,4
2018-08-27T04:21:25.771Z,8
2018-08-27T04:22:25.719Z,8
2018-08-27T04:23:25.735Z,8
2018-08-27T04:24:26.101Z,8
2018-08-27T04:25:25.715Z,8
2018-08-27T04:26:25.714Z,12
2018-08-27T04:27:25.729Z,12
2018-08-27T04:28:25.825Z,12
2018-08-27T04:29:25.768Z,16
2018-08-27T04:36:05.324Z,28
2018-08-27T04:37:05.329Z,28
2018-08-27T04:38:05.341Z,32
2018-08-27T04:39:05.319Z,32
2018-08-27T04:40:05.296Z,36
2018-08-27T04:41:05.736Z,36
2018-08-27T04:42:05.298Z,40
2018-08-27T04:43:05.305Z,40
2018-08-27T04:44:05.393Z,40
2018-08-27T04:45:05.350Z,40
2018-08-27T04:46:05.368Z,44
2018-08-27T04:47:05.722Z,44
2018-08-27T04:48:05.344Z,48
2018-08-27T04:49:05.287Z,48
2018-08-27T04:50:05.320Z,48
2018-08-27T04:51:05.391Z,52
2018-08-27T04:52:05.323Z,52
2018-08-27T04:53:05.709Z,56
2018-08-27T04:54:05.306Z,56
2018-08-27T04:55:05.392Z,60
2018-08-27T04:56:05.287Z,64
2018-08-27T04:57:25.176Z,68
2018-08-27T04:58:05.311Z,76
2018-08-27T04:59:05.643Z,80
2018-08-27T05:00:05.358Z,84
2018-08-27T05:01:05.359Z,88
2018-08-27T05:02:05.317Z,92
2018-08-27T05:03:05.330Z,96
2018-08-27T05:04:05.305Z,100
2018-08-27T05:05:05.628Z,100
2018-08-27T05:06:05.331Z,104
2018-08-27T05:07:05.338Z,108
2018-08-27T05:08:05.351Z,108
2018-08-27T05:09:05.315Z,108
2018-08-27T05:10:05.414Z,108
2018-08-27T05:11:05.621Z,108
2018-08-27T05:12:05.342Z,104
2018-08-27T05:13:05.358Z,100
2018-08-27T05:14:05.314Z,100
2018-08-27T05:15:05.391Z,96
2018-08-27T05:16:05.311Z,100
2018-08-27T05:17:05.779Z,96
2018-08-27T05:18:05.307Z,100
2018-08-27T05:19:05.471Z,104
2018-08-27T05:20:05.416Z,104
2018-08-27T05:21:05.383Z,104
2018-08-27T05:22:05.370Z,104
2018-08-27T05:23:06.735Z,108
2018-08-27T05:24:05.331Z,112
2018-08-27T05:25:05.402Z,124
2018-08-27T05:26:05.373Z,124
2018-08-27T05:27:05.339Z,120
2018-08-27T05:28:05.354Z,124
2018-08-27T05:29:05.758Z,124
2018-08-27T05:30:05.417Z,128
2018-08-27T05:31:05.669Z,128
2018-08-27T05:32:05.384Z,128
2018-08-27T05:33:05.353Z,132
2018-08-27T05:34:05.379Z,128
2018-08-27T05:35:05.678Z,132
2018-08-27T05:36:05.353Z,132
2018-08-27T05:37:05.458Z,136
2018-08-27T05:38:05.487Z,144
2018-08-27T05:39:05.377Z,152
2018-08-27T05:40:05.401Z,164
2018-08-27T05:41:05.712Z,180
2018-08-27T05:48:32.424Z,228
2018-08-27T05:48:44.858Z,220
2018-08-27T05:49:44.656Z,204
2018-08-27T05:50:44.660Z,204
2018-08-27T05:51:44.621Z,204
2018-08-27T05:52:44.638Z,192
2018-08-27T05:53:45.030Z,196
2018-08-27T05:54:44.676Z,204
2018-08-27T05:55:44.648Z,220
2018-08-27T05:56:44.669Z,240
2018-08-27T05:57:44.664Z,252
2018-08-27T05:58:44.636Z,252
2018-08-27T05:59:44.968Z,260
2018-08-27T06:00:44.906Z,264
2018-08-27T06:01:44.838Z,264
2018-08-27T06:02:44.733Z,264
2018-08-27T06:03:44.716Z,260
2018-08-27T06:04:44.715Z,268
2018-08-27T06:05:45.093Z,268
2018-08-27T06:06:44.750Z,272
2018-08-27T06:07:44.663Z,280
2018-08-27T06:08:44.705Z,284
2018-08-27T06:09:44.800Z,284
2018-08-27T06:10:44.684Z,288
2018-08-27T06:11:45.032Z,300
2018-08-27T06:12:44.696Z,308
2018-08-27T06:13:44.665Z,316
2018-08-27T06:14:44.684Z,324
2018-08-27T06:15:44.685Z,328
2018-08-27T06:16:44.856Z,332
2018-08-27T06:17:45.077Z,328
2018-08-27T06:18:44.705Z,328
2018-08-27T06:19:44.750Z,332
2018-08-27T06:20:44.673Z,332
2018-08-27T06:21:44.700Z,344
2018-08-27T06:22:44.709Z,364
2018-08-27T06:23:45.107Z,384
2018-08-27T06:24:44.673Z,392
2018-08-27T06:25:44.717Z,416
2018-08-27T06:26:44.747Z,404
2018-08-27T06:27:44.732Z,384
2018-08-27T06:28:44.688Z,376
2018-08-27T06:29:45.153Z,364
2018-08-27T06:30:44.744Z,352
2018-08-27T06:31:44.682Z,352
2018-08-27T06:32:44.785Z,356
2018-08-27T06:33:44.883Z,352
2018-08-27T06:34:44.699Z,344
2018-08-27T06:35:48.363Z,356
2018-08-27T06:36:44.809Z,356
2018-08-27T06:39:04.710Z,364
2018-08-27T06:40:04.203Z,416
2018-08-27T06:41:04.577Z,488
2018-08-27T06:42:04.277Z,380
2018-08-27T06:43:04.117Z,364
2018-08-27T06:44:04.256Z,364
2018-08-27T06:45:04.204Z,364
2018-08-27T06:46:04.235Z,372
2018-08-27T06:47:05.648Z,368
2018-08-27T06:48:04.282Z,360
2018-08-27T06:49:04.258Z,352
2018-08-27T06:50:04.253Z,360
2018-08-27T06:51:04.240Z,352
2018-08-27T06:52:04.320Z,344
2018-08-27T06:53:04.658Z,344
2018-08-27T06:54:04.279Z,352
2018-08-27T06:55:04.215Z,364
2018-08-27T06:56:04.253Z,396
2018-08-27T06:57:04.267Z,436
2018-08-27T06:58:04.276Z,472
2018-08-27T06:59:05.130Z,552
2018-08-27T07:00:04.229Z,864
2018-08-27T07:01:04.238Z,828
2018-08-27T07:02:04.274Z,724
2018-08-27T07:03:04.244Z,632
2018-08-27T07:04:04.215Z,652
2018-08-27T07:05:06.575Z,624
2018-08-27T07:06:04.255Z,468
2018-08-27T07:07:04.264Z,436
2018-08-27T07:08:04.210Z,416
2018-08-27T07:09:04.239Z,428
2018-08-27T07:10:04.221Z,436
2018-08-27T07:11:05.597Z,528
2018-08-27T07:12:03.726Z,552
2018-08-27T07:13:04.246Z,500
2018-08-27T07:14:04.304Z,560
2018-08-27T07:15:04.224Z,792
2018-08-27T07:16:04.244Z,1888
2018-08-27T07:17:04.531Z,856
2018-08-27T07:18:04.306Z,984
2018-08-27T07:19:04.254Z,620
2018-08-27T07:20:04.359Z,600
2018-08-27T07:21:04.297Z,600
2018-08-27T07:22:04.255Z,648
2018-08-27T07:23:06.689Z,600
2018-08-27T07:24:04.314Z,592
2018-08-27T07:25:04.293Z,608
2018-08-27T07:26:04.326Z,628
2018-08-27T07:27:04.227Z,656
2018-08-27T07:28:04.276Z,704
2018-08-27T07:29:08.061Z,968
2018-08-27T07:30:04.282Z,848
2018-08-27T07:31:04.693Z,780
2018-08-27T07:32:04.250Z,724
2018-08-27T07:39:30.736Z,1084
2018-08-27T07:39:43.021Z,1052
2018-08-27T07:40:43.167Z,1008
2018-08-27T07:41:42.991Z,2136
2018-08-27T07:42:42.998Z,1384
2018-08-27T07:44:43.113Z,2024
2018-08-27T07:45:43.020Z,1808
2018-08-27T07:46:43.061Z,1596
2018-08-27T07:47:43.009Z,2184
2018-08-27T07:48:43.023Z,2480
2018-08-27T07:49:43.309Z,2792
2018-08-27T07:50:43.278Z,1644
2018-08-27T07:51:43.039Z,1220
2018-08-27T07:52:43.053Z,1256
2018-08-27T07:53:43.014Z,2792
2018-08-27T07:54:43.054Z,1680
2018-08-27T07:55:43.057Z,2996
2018-08-27T07:56:43.061Z,3408
2018-08-27T07:57:43.017Z,3128
2018-08-27T07:58:43.150Z,1136
2018-08-27T07:59:43.042Z,1036
2018-08-27T08:00:43.037Z,920
2018-08-27T08:01:43.324Z,920
2018-08-27T08:02:43.059Z,1384
2018-08-27T08:03:43.032Z,1160
2018-08-27T08:04:43.219Z,1596
2018-08-27T08:05:43.013Z,1468
2018-08-27T08:06:43.024Z,1188
2018-08-27T08:07:43.435Z,1024
2018-08-27T08:08:43.069Z,2140
2018-08-27T08:09:43.079Z,1000
2018-08-27T08:10:43.000Z,1388
2018-08-27T08:11:43.329Z,2088
2018-08-27T08:12:43.019Z,1044
2018-08-27T08:13:43.018Z,888
2018-08-27T08:14:43.002Z,920
2018-08-27T08:15:43.075Z,972
2018-08-27T08:16:43.126Z,940
2018-08-27T08:17:43.063Z,1060
2018-08-27T08:18:43.357Z,892
2018-08-27T08:19:42.995Z,996
2018-08-27T08:20:42.996Z,816
2018-08-27T08:21:43.046Z,748
2018-08-27T08:22:43.113Z,712
2018-08-27T08:23:43.021Z,688
2018-08-27T08:24:43.026Z,672
2018-08-27T08:25:48.780Z,684
2018-08-27T08:26:42.980Z,720
2018-08-27T08:27:43.049Z,772
2018-08-27T08:28:43.053Z,832
2018-08-27T08:29:43.021Z,848
2018-08-27T08:30:43.061Z,856
2018-08-27T08:31:43.378Z,856
2018-08-27T08:32:43.044Z,884
2018-08-27T08:33:43.032Z,1064
2018-08-27T08:34:42.425Z,1004
2018-08-27T08:35:43.030Z,1068
2018-08-27T08:36:43.035Z,1856
2018-08-27T08:37:43.354Z,1132
2018-08-27T08:38:43.056Z,1252
2018-08-27T08:39:42.479Z,1864
2018-08-27T08:40:43.029Z,1088
2018-08-27T08:41:43.036Z,1080
2018-08-27T08:42:43.041Z,1732
2018-08-27T08:43:43.461Z,1640
2018-08-27T08:44:43.164Z,1384
2018-08-27T08:45:43.071Z,1444
2018-08-27T08:46:43.071Z,1416
2018-08-27T08:47:43.043Z,1180
2018-08-27T08:48:43.101Z,1396
2018-08-27T08:49:43.395Z,1892
2018-08-27T08:50:43.116Z,1820
2018-08-27T08:51:43.110Z,1624
2018-08-27T08:52:43.090Z,1080
2018-08-27T08:53:43.237Z,1712
2018-08-27T08:54:43.059Z,1792
2018-08-27T08:55:43.334Z,1356
2018-08-27T08:56:43.185Z,1068
2018-08-27T08:57:43.146Z,1068
2018-08-27T08:58:43.194Z,1048
2018-08-27T08:59:43.090Z,1060
2018-08-27T09:00:43.122Z,948
2018-08-27T09:01:43.675Z,944
2018-08-27T09:02:43.154Z,980
2018-08-27T09:03:43.142Z,1112
2018-08-27T09:04:43.163Z,1208
2018-08-27T09:05:43.179Z,1264
2018-08-27T09:06:43.142Z,1312
2018-08-27T09:07:45.453Z,1116
2018-08-27T09:08:43.293Z,1016
2018-08-27T09:09:43.128Z,928
2018-08-27T09:10:43.128Z,876
2018-08-27T09:11:43.211Z,832
2018-08-27T09:12:43.172Z,820
2018-08-27T09:13:43.430Z,832
2018-08-27T09:14:43.199Z,864
2018-08-27T09:15:43.119Z,880
2018-08-27T09:16:43.287Z,900
2018-08-27T09:17:43.387Z,968
2018-08-27T09:18:43.157Z,928
2018-08-27T09:19:43.436Z,908
2018-08-27T09:20:43.184Z,924
2018-08-27T09:21:43.134Z,932
2018-08-27T09:22:43.149Z,932
2018-08-27T09:23:43.345Z,928
2018-08-27T09:24:43.216Z,924
2018-08-27T09:25:43.526Z,900
2018-08-27T09:26:43.163Z,880
2018-08-27T09:27:43.203Z,896
2018-08-27T09:28:43.139Z,908
2018-08-27T09:29:43.228Z,1376
2018-08-27T09:30:43.214Z,1092
2018-08-27T09:31:43.580Z,1288
2018-08-27T09:32:45.109Z,1260
2018-08-27T09:33:43.136Z,1196
2018-08-27T09:39:01.121Z,1112
2018-08-27T09:39:13.390Z,1136
2018-08-27T09:40:13.466Z,1040
2018-08-27T09:41:13.565Z,960
2018-08-27T09:42:13.441Z,924
2018-08-27T09:43:13.369Z,884
2018-08-27T09:44:13.856Z,836
2018-08-27T09:45:13.412Z,788
2018-08-27T09:46:13.392Z,732
2018-08-27T09:47:13.431Z,680
2018-08-27T09:48:13.403Z,628
2018-08-27T09:49:13.524Z,584
2018-08-27T09:50:14.008Z,540
2018-08-27T09:51:13.361Z,508
2018-08-27T09:52:13.366Z,488
2018-08-27T09:53:13.571Z,484
2018-08-27T09:54:13.380Z,488
2018-08-27T09:55:13.444Z,496
2018-08-27T09:56:13.692Z,500
2018-08-27T09:57:13.359Z,508
2018-08-27T09:58:13.458Z,508
2018-08-27T09:59:14.223Z,504
2018-08-27T10:00:13.458Z,504
2018-08-27T10:01:13.397Z,500
2018-08-27T10:02:13.408Z,492
2018-08-27T10:03:13.438Z,492
2018-08-27T10:04:13.419Z,492
2018-08-27T10:05:13.518Z,500
2018-08-27T10:06:13.521Z,508
2018-08-27T10:07:13.442Z,516
2018-08-27T10:08:14.830Z,524
2018-08-27T10:09:13.589Z,544
2018-08-27T10:10:13.681Z,568
2018-08-27T10:11:13.592Z,600
2018-08-27T10:12:13.459Z,620
2018-08-27T10:13:13.438Z,644
2018-08-27T10:14:13.779Z,672
2018-08-27T10:15:13.627Z,708
2018-08-27T10:16:13.424Z,744
2018-08-27T10:17:13.456Z,772
2018-08-27T10:18:13.430Z,804
2018-08-27T10:19:13.482Z,804
2018-08-27T10:20:13.811Z,808
2018-08-27T10:21:13.586Z,792
2018-08-27T10:22:13.618Z,768
2018-08-27T10:23:13.498Z,744
2018-08-27T10:24:13.480Z,724
2018-08-27T10:25:13.537Z,708
2018-08-27T10:26:13.731Z,692
2018-08-27T10:27:13.455Z,676
2018-08-27T10:28:13.420Z,652
2018-08-27T10:29:13.438Z,616
2018-08-27T10:30:13.580Z,592
2018-08-27T10:31:13.477Z,572
2018-08-27T10:32:13.753Z,560
2018-08-27T10:33:13.462Z,560
2018-08-27T10:34:13.750Z,560
2018-08-27T10:35:13.782Z,560
2018-08-27T10:36:13.719Z,564
2018-08-27T10:37:13.645Z,568
2018-08-27T10:39:34.492Z,552
2018-08-27T10:40:34.510Z,548
2018-08-27T10:51:34.398Z,1192
2018-08-27T10:52:34.365Z,1116
2018-08-27T10:53:34.405Z,1424
2018-08-27T10:54:34.346Z,1536
2018-08-27T10:55:35.720Z,1760
2018-08-27T10:56:34.391Z,1800
2018-08-27T10:57:34.432Z,1880
2018-08-27T10:58:34.521Z,1836
2018-08-27T10:59:34.457Z,1804
2018-08-27T11:00:34.421Z,1776
2018-08-27T11:01:34.824Z,1764
2018-08-27T11:02:34.553Z,1652
2018-08-27T11:03:34.409Z,1540
2018-08-27T11:04:34.426Z,1796
2018-08-27T11:05:34.398Z,1368
2018-08-27T11:06:34.397Z,1524
2018-08-27T11:07:36.827Z,1236
2018-08-27T11:09:56.440Z,892
2018-08-27T11:10:56.569Z,872
2018-08-27T11:11:56.444Z,864
2018-08-27T11:12:56.726Z,900
2018-08-27T11:13:56.459Z,1060
2018-08-27T11:14:56.578Z,1272
2018-08-27T11:20:13.009Z,816
2018-08-27T11:20:25.949Z,1024
2018-08-27T11:21:25.560Z,1088
2018-08-27T11:22:25.525Z,1212
2018-08-27T11:23:25.595Z,944
2018-08-27T11:24:26.358Z,888
2018-08-27T11:25:25.994Z,936
2018-08-27T11:26:25.853Z,1020
2018-08-27T11:27:26.179Z,884
2018-08-27T11:28:25.604Z,840
2018-08-27T11:29:25.604Z,828
2018-08-27T11:30:25.675Z,836
2018-08-27T11:31:26.019Z,848
2018-08-27T11:32:25.557Z,840
2018-08-27T11:33:25.559Z,820
2018-08-27T11:34:25.580Z,816
2018-08-27T11:35:25.577Z,800
2018-08-27T11:36:25.552Z,776
2018-08-27T11:37:25.928Z,760
2018-08-27T11:38:25.663Z,768
2018-08-27T11:39:25.605Z,800
2018-08-27T11:40:25.602Z,820
2018-08-27T11:41:25.603Z,808
2018-08-27T11:42:25.560Z,792
2018-08-27T11:43:26.133Z,756
2018-08-27T11:44:25.519Z,712
2018-08-27T11:45:25.709Z,680
2018-08-27T11:46:25.650Z,680
2018-08-27T11:47:25.684Z,700
2018-08-27T11:48:25.622Z,716
2018-08-27T11:49:25.952Z,740
2018-08-27T11:50:26.323Z,776
2018-08-27T11:51:25.683Z,820
2018-08-27T11:52:25.584Z,856
2018-08-27T11:53:25.665Z,836
2018-08-27T11:54:25.654Z,748
2018-08-27T11:55:26.998Z,828
2018-08-27T11:56:25.646Z,848
2018-08-27T12:01:43.013Z,940
2018-08-27T12:01:55.843Z,912
2018-08-27T12:03:00.352Z,880
2018-08-27T12:03:55.655Z,836
2018-08-27T12:04:55.778Z,808
2018-08-27T12:05:55.646Z,776
2018-08-27T12:06:55.685Z,748
2018-08-27T12:07:58.630Z,720
2018-08-27T12:08:55.908Z,708
2018-08-27T12:09:55.691Z,712
2018-08-27T12:10:55.719Z,704
2018-08-27T12:11:55.701Z,684
2018-08-27T12:12:55.685Z,676
2018-08-27T12:13:56.004Z,716
2018-08-27T12:14:55.812Z,692
2018-08-27T12:15:55.717Z,624
2018-08-27T12:20:25.866Z,476
2018-08-27T12:21:25.887Z,456
2018-08-27T12:22:25.842Z,440
2018-08-27T12:23:25.890Z,432
2018-08-27T12:24:25.993Z,424
2018-08-27T12:25:27.330Z,412
2018-08-27T12:26:27.912Z,404
2018-08-27T12:27:25.833Z,400
2018-08-27T12:28:26.016Z,400
2018-08-27T12:29:26.040Z,424
2018-08-27T12:30:25.896Z,448
2018-08-27T12:31:26.244Z,472
2018-08-27T12:32:25.884Z,476
2018-08-27T12:33:25.963Z,468
2018-08-27T12:34:25.932Z,468
2018-08-27T12:35:25.854Z,472
2018-08-27T12:36:25.930Z,492
2018-08-27T12:41:45.288Z,500
2018-08-27T12:41:57.718Z,536
2018-08-27T12:42:58.035Z,524
2018-08-27T12:43:57.633Z,508
2018-08-27T12:44:57.602Z,496
2018-08-27T12:45:57.549Z,496
2018-08-27T12:46:57.638Z,504
2018-08-27T12:47:57.594Z,520
2018-08-27T12:48:57.963Z,540
2018-08-27T12:49:57.625Z,552
2018-08-27T12:50:57.800Z,548
2018-08-27T13:00:36.010Z,616
2018-08-27T13:00:48.269Z,628
2018-08-27T13:01:48.286Z,664
2018-08-27T13:02:48.338Z,680
2018-08-27T13:03:47.888Z,732
2018-08-27T13:04:48.311Z,768
2018-08-27T13:05:47.768Z,796
2018-08-27T13:06:48.534Z,796
2018-08-27T13:07:48.566Z,796
2018-08-27T13:08:48.271Z,804
2018-08-27T13:09:48.261Z,796
2018-08-27T13:10:48.317Z,788
2018-08-27T13:11:48.581Z,808
2018-08-27T13:12:48.408Z,784
2018-08-27T13:13:48.301Z,812
2018-08-27T13:14:48.306Z,816
2018-08-27T13:15:48.290Z,808
2018-08-27T13:16:48.298Z,844
2018-08-27T13:17:48.642Z,852
2018-08-27T13:18:48.402Z,868
2018-08-27T13:19:48.272Z,1024
2018-08-27T13:20:48.310Z,988
2018-08-27T13:21:48.459Z,1180
2018-08-27T13:22:48.244Z,1208
2018-08-27T13:23:48.574Z,1012
2018-08-27T13:39:31.482Z,556
2018-08-27T13:44:21.934Z,556
2018-08-27T13:44:44.605Z,500
2018-08-27T13:45:33.342Z,492
2018-08-27T13:46:33.297Z,488
2018-08-27T13:47:33.275Z,480
2018-08-27T13:48:33.363Z,480
2018-08-27T13:49:33.207Z,476
2018-08-27T13:50:33.590Z,476
2018-08-27T13:51:33.490Z,476
2018-08-27T13:52:33.286Z,476
2018-08-27T13:53:33.291Z,476
2018-08-27T13:54:33.322Z,480
2018-08-27T13:55:33.365Z,496
2018-08-27T13:56:33.802Z,516
2018-08-27T13:57:33.285Z,548
2018-08-27T13:58:33.334Z,588
2018-08-27T13:59:33.384Z,624
2018-08-27T14:00:33.439Z,704
2018-08-27T14:01:33.345Z,768
2018-08-27T14:02:33.687Z,868
2018-08-27T14:03:34.309Z,732
2018-08-27T14:04:34.776Z,724
2018-08-27T14:05:33.400Z,928
2018-08-27T14:06:33.344Z,820
2018-08-27T14:07:33.228Z,700
2018-08-27T14:08:33.886Z,732
2018-08-27T14:09:33.327Z,784
2018-08-27T14:10:33.326Z,672
2018-08-27T14:11:33.285Z,616
2018-08-27T14:12:35.035Z,600
2018-08-27T14:13:33.858Z,584
2018-08-27T14:14:34.250Z,560
2018-08-27T14:15:33.549Z,560
2018-08-27T14:16:33.348Z,572
2018-08-27T14:17:33.287Z,580
2018-08-27T14:18:34.142Z,644
2018-08-27T14:19:33.592Z,632
2018-08-27T14:20:34.813Z,620
2018-08-27T14:21:33.316Z,568
2018-08-27T14:22:33.310Z,540
2018-08-27T14:23:33.405Z,516
2018-08-27T14:24:33.548Z,516
2018-08-27T14:25:33.542Z,540
2018-08-27T14:26:49.763Z,532
2018-08-27T14:27:34.172Z,504
2018-08-27T14:28:33.386Z,484
2018-08-27T14:29:33.367Z,476
2018-08-27T14:30:33.679Z,440
2018-08-27T14:31:33.333Z,480
2018-08-27T14:32:33.678Z,484
2018-08-27T14:33:33.575Z,492
2018-08-27T14:34:33.506Z,564
2018-08-27T14:35:33.380Z,588
2018-08-27T14:36:33.426Z,576
2018-08-27T14:37:33.476Z,608
2018-08-27T14:38:33.887Z,580
2018-08-27T14:39:33.487Z,616
2018-08-27T14:40:34.010Z,612
2018-08-27T14:41:33.596Z,636
2018-08-27T14:42:34.097Z,676
2018-08-27T14:43:33.356Z,624
2018-08-27T14:44:38.489Z,644
2018-08-27T14:45:33.375Z,628
2018-08-27T14:46:33.439Z,628
2018-08-27T14:47:33.392Z,612
2018-08-27T14:48:33.369Z,560
2018-08-27T14:49:33.474Z,548
2018-08-27T14:50:34.583Z,524
2018-08-27T14:51:33.383Z,512
2018-08-27T14:52:34.082Z,504
2018-08-27T14:53:33.423Z,732
2018-08-27T14:54:34.348Z,564
2018-08-27T14:55:33.392Z,612
2018-08-27T14:56:34.760Z,652
2018-08-27T14:57:33.402Z,544
2018-08-27T14:58:33.373Z,540
2018-08-27T14:59:33.412Z,500
2018-08-27T15:00:33.418Z,408
2018-08-27T15:01:33.451Z,372
2018-08-27T15:02:33.690Z,356
2018-08-27T15:03:33.437Z,364
2018-08-27T15:04:33.469Z,360
2018-08-27T15:05:33.862Z,356
2018-08-27T15:06:33.459Z,356
2018-08-27T15:07:33.416Z,356
2018-08-27T15:08:58.886Z,364
2018-08-27T15:09:34.186Z,380
2018-08-27T15:10:33.417Z,384
2018-08-27T15:11:33.441Z,368
2018-08-27T15:12:33.394Z,348
2018-08-27T15:13:33.406Z,336
2018-08-27T15:14:33.991Z,324
2018-08-27T15:15:33.460Z,320
2018-08-27T15:16:33.562Z,316
2018-08-27T15:17:33.456Z,312
2018-08-27T15:18:34.075Z,312
2018-08-27T15:19:35.318Z,308
2018-08-27T15:20:35.802Z,300
2018-08-27T15:21:33.996Z,288
2018-08-27T15:22:34.825Z,288
2018-08-27T15:23:34.584Z,296
2018-08-27T15:24:33.429Z,304
2018-08-27T15:25:34.426Z,308
2018-08-27T15:26:33.430Z,304
2018-08-27T15:27:33.446Z,292
2018-08-27T15:28:33.479Z,276
2018-08-27T15:29:33.410Z,272
2018-08-27T15:30:33.571Z,268
2018-08-27T15:31:33.867Z,276
2018-08-27T15:32:33.454Z,296
2018-08-27T15:33:34.035Z,324
2018-08-27T15:34:33.490Z,332